Time;durP1;ratioP1;P1;durP2;ratioP2;P2;SDS_P1;SDS_P2;PMS_P1;PMS_P2;Temp;Humidity;BMP_temperature;BMP_pressure;BME280_temperature;BME280_humidity;BME280_pressure;Samples;Min_cycle;Max_cycle;Signal;HPM_P1;HPM_P2
2023/01/10 00:01:56;;;;;;;7.15;4.15;;;;;;;-15.41;75.42;100640.94;4932306;28;20093;-64
2023/01/10 00:04:28;;;;;;;10.18;4.95;;;;;;;-15.51;75.05;100573.22;4932224;28;20044;-60
2023/01/10 00:06:59;;;;;;;12.68;5.47;;;;;;;-15.35;74.23;100581.34;4931777;28;20040;-62
2023/01/10 00:09:30;;;;;;;6.10;4.35;;;;;;;-14.82;73.66;100632.09;4932015;28;20047;-63
2023/01/10 00:14:49;;;;;;;6.53;3.75;;;;;;;-14.32;72.53;100628.13;4920159;28;20044;-62
2023/01/10 00:17:21;;;;;;;8.02;4.15;;;;;;;-14.10;71.57;100635.91;4931999;28;20048;-61
2023/01/10 00:19:52;;;;;;;6.07;3.45;;;;;;;-13.93;71.30;100633.19;4932221;28;20267;-62
2023/01/10 00:22:24;;;;;;;4.88;3.58;;;;;;;-14.03;70.45;100597.97;4928894;28;20063;-61
2023/01/10 00:24:54;;;;;;;4.70;3.47;;;;;;;-13.70;69.81;100635.19;4931219;28;20315;-60
2023/01/10 00:27:25;;;;;;;4.97;3.70;;;;;;;-13.42;69.14;100636.63;4932197;28;20050;-61
2023/01/10 00:30:00;;;;;;;7.10;4.05;;;;;;;-13.27;68.86;100642.94;4931930;28;20288;-61
2023/01/10 00:32:31;;;;;;;5.70;3.60;;;;;;;-13.10;67.68;100635.16;4931181;28;20093;-66
2023/01/10 00:35:04;;;;;;;6.93;3.75;;;;;;;-12.93;67.56;100631.47;4931186;28;20047;-64
2023/01/10 00:37:35;;;;;;;6.35;3.97;;;;;;;-12.85;66.98;100609.50;4929278;28;20079;-62
2023/01/10 00:40:08;;;;;;;8.77;3.53;;;;;;;-12.61;66.49;100631.59;4951163;28;20052;-62
2023/01/10 00:45:30;;;;;;;6.00;4.05;;;;;;;-12.35;64.82;100614.31;4921086;28;20057;-62
2023/01/10 00:48:01;;;;;;;7.35;3.88;;;;;;;-12.17;64.88;100636.81;4910432;28;20332;-62
2023/01/10 00:50:32;;;;;;;5.38;3.28;;;;;;;-12.03;64.25;100629.47;4931058;28;20043;-62
2023/01/10 00:53:03;;;;;;;4.68;3.47;;;;;;;-12.22;63.09;100586.84;4931428;28;20561;-63
2023/01/10 00:55:34;;;;;;;8.70;3.90;;;;;;;-11.94;62.99;100627.69;4933348;28;20051;-61
2023/01/10 00:58:05;;;;;;;7.03;4.07;;;;;;;-11.88;62.89;100619.72;4938445;28;20059;-67
2023/01/10 01:00:40;;;;;;;5.75;3.10;;;;;;;-11.80;62.27;100632.13;4930195;28;20047;-64
2023/01/10 01:03:11;;;;;;;6.82;3.47;;;;;;;-11.70;61.67;100631.22;4921593;28;20112;-61
2023/01/10 01:05:43;;;;;;;8.13;3.47;;;;;;;-11.57;62.04;100625.47;4930673;28;20036;-63
2023/01/10 01:08:16;;;;;;;7.85;4.07;;;;;;;-11.60;60.82;100612.63;4930765;28;20298;-61
2023/01/10 01:10:47;;;;;;;5.75;3.70;;;;;;;-11.74;60.67;100582.19;4929297;28;20115;-62
2023/01/10 01:13:20;;;;;;;8.32;4.03;;;;;;;-11.52;60.69;100601.50;4930694;28;20060;-63
2023/01/10 01:15:53;;;;;;;6.78;3.50;;;;;;;-11.30;60.64;100609.94;4921601;28;20089;-65
2023/01/10 01:18:24;;;;;;;8.15;3.58;;;;;;;-11.26;60.58;100600.06;4930529;28;20048;-61
2023/01/10 01:20:56;;;;;;;4.60;3.45;;;;;;;-11.04;60.53;100608.47;4931013;28;20056;-64
2023/01/10 01:23:28;;;;;;;6.70;3.90;;;;;;;-10.98;60.09;100603.00;4930770;28;20040;-64
2023/01/10 01:25:59;;;;;;;6.93;4.03;;;;;;;-10.98;59.79;100603.00;4932687;28;20058;-62
2023/01/10 01:28:42;;;;;;;4.93;3.33;;;;;;;-10.83;58.77;100603.25;4932035;28;20046;-60
2023/01/10 01:31:15;;;;;;;7.85;3.80;;;;;;;-10.78;58.62;100604.47;4919694;28;20060;-65
2023/01/10 01:33:46;;;;;;;6.10;3.70;;;;;;;-10.70;58.77;100596.72;4930216;28;20063;-64
2023/01/10 01:36:17;;;;;;;6.47;4.13;;;;;;;-11.09;58.67;100524.00;4927796;28;20234;-63
2023/01/10 01:38:47;;;;;;;6.15;3.83;;;;;;;-10.60;58.41;100593.22;4929923;28;20059;-60
2023/01/10 01:44:07;;;;;;;4.95;3.13;;;;;;;-10.54;56.77;100606.28;4919136;28;20119;-63
2023/01/10 01:46:41;;;;;;;6.30;3.28;;;;;;;-10.47;57.24;100595.84;4930065;28;20309;-59
2023/01/10 01:49:17;;;;;;;7.00;3.47;;;;;;;-10.38;56.72;100594.75;4919348;28;20052;-64
2023/01/10 01:51:49;;;;;;;4.63;3.08;;;;;;;-10.50;55.20;100589.72;4929396;28;20059;-62
2023/01/10 01:54:20;;;;;;;6.63;3.90;;;;;;;-10.81;55.68;100546.19;4923091;28;20053;-65
2023/01/10 01:56:56;;;;;;;9.05;3.92;;;;;;;-10.50;56.79;100582.13;4929785;28;20353;-62
2023/01/10 01:59:31;;;;;;;6.57;3.97;;;;;;;-11.09;55.80;100455.88;4929482;28;20353;-61
2023/01/10 02:02:09;;;;;;;6.50;3.58;;;;;;;-10.43;56.24;100557.44;4919131;28;20060;-67
2023/01/10 02:04:45;;;;;;;5.72;3.85;;;;;;;-10.06;56.48;100570.13;4925646;28;20167;-65
2023/01/10 02:07:16;;;;;;;6.22;3.40;;;;;;;-10.03;54.70;100572.84;4929547;28;20080;-64
2023/01/10 02:09:51;;;;;;;7.53;4.03;;;;;;;-10.11;55.59;100556.25;4929803;28;20059;-63
2023/01/10 02:12:23;;;;;;;9.00;3.67;;;;;;;-10.02;55.12;100571.19;4919916;28;20048;-63
2023/01/10 02:14:55;;;;;;;8.10;4.53;;;;;;;-10.02;54.99;100546.78;4930355;28;20387;-61
2023/01/10 02:17:28;;;;;;;5.40;3.53;;;;;;;-10.08;53.89;100543.84;4930150;28;20111;-65
2023/01/10 02:20:02;;;;;;;7.80;4.40;;;;;;;-10.51;54.19;100467.59;4930268;28;20081;-64
2023/01/10 02:23:04;;;;;;;9.27;4.60;;;;;;;-10.13;54.18;100546.81;4919678;28;20052;-66
2023/01/10 02:26:22;;;;;;;11.30;5.00;;;;;;;-9.95;54.91;100554.81;4919079;28;20047;-61
2023/01/10 02:29:20;;;;;;;9.63;4.57;;;;;;;-9.90;54.23;100556.03;4917748;28;20066;-63
2023/01/10 02:32:10;;;;;;;11.48;5.05;;;;;;;-9.98;54.51;100515.91;4909195;28;20084;-61
2023/01/10 02:34:50;;;;;;;9.07;4.55;;;;;;;-9.95;52.82;100519.44;4908491;28;20370;-64
2023/01/10 02:37:26;;;;;;;8.65;4.18;;;;;;;-9.77;53.84;100533.34;4920068;28;20044;-61
2023/01/10 02:40:05;;;;;;;10.00;3.80;;;;;;;-9.90;53.60;100510.53;4928954;28;20064;-63
2023/01/10 02:42:42;;;;;;;8.98;4.30;;;;;;;-9.67;54.00;100530.66;4919296;28;20375;-61
2023/01/10 02:45:18;;;;;;;8.48;4.68;;;;;;;-9.47;54.09;100543.78;4919023;28;20048;-62
2023/01/10 02:47:50;;;;;;;9.77;4.70;;;;;;;-9.53;53.24;100523.13;4927675;28;20068;-62
2023/01/10 02:50:45;;;;;;;9.93;5.28;;;;;;;-9.67;53.28;100499.44;4932797;28;20054;-65
2023/01/10 02:53:19;;;;;;;11.05;4.75;;;;;;;-9.53;53.20;100533.22;4923070;28;20044;-61
2023/01/10 02:56:22;;;;;;;10.45;5.25;;;;;;;-9.42;53.53;100527.25;4925894;28;20041;-62
2023/01/10 02:59:24;;;;;;;9.15;5.22;;;;;;;-9.35;54.01;100524.38;4919790;28;20045;-63
2023/01/10 03:02:00;;;;;;;15.07;6.95;;;;;;;-9.33;53.75;100520.28;4922604;28;20115;-65
2023/01/10 03:04:44;;;;;;;10.18;5.05;;;;;;;-9.29;53.69;100509.59;4922568;28;20094;-63
2023/01/10 03:07:20;;;;;;;12.45;5.22;;;;;;;-9.19;54.11;100511.94;4923326;28;20097;-63
2023/01/10 03:09:56;;;;;;;16.45;5.32;;;;;;;-9.16;53.50;100509.66;4923981;28;20049;-65
2023/01/10 03:12:34;;;;;;;10.77;5.97;;;;;;;-9.31;53.95;100485.81;4942398;28;20052;-64
2023/01/10 03:15:07;;;;;;;10.18;5.28;;;;;;;-9.39;52.82;100476.84;4923126;28;20052;-64
2023/01/10 03:17:40;;;;;;;9.43;4.57;;;;;;;-9.12;54.01;100509.03;4932848;28;20044;-62
2023/01/10 03:20:13;;;;;;;16.83;6.32;;;;;;;-9.26;52.41;100503.84;4923196;28;20059;-65
2023/01/10 03:22:45;;;;;;;8.73;4.60;;;;;;;-9.34;53.08;100480.56;4932295;28;20115;-60
2023/01/10 03:25:20;;;;;;;9.18;4.88;;;;;;;-9.23;53.44;100484.69;4932702;28;20047;-63
2023/01/10 03:27:58;;;;;;;9.57;4.68;;;;;;;-9.16;54.11;100503.69;4922346;28;20196;-63
2023/01/10 03:30:32;;;;;;;5.47;3.15;;;;;;;-9.25;53.58;100498.91;4931032;28;20457;-64
2023/01/10 03:33:05;;;;;;;9.98;5.55;;;;;;;-9.23;54.58;100504.94;4933658;28;20055;-64
2023/01/10 03:35:50;;;;;;;10.25;5.45;;;;;;;-9.59;54.24;100424.94;4931953;28;20056;-64
2023/01/10 03:38:27;;;;;;;6.97;3.90;;;;;;;-9.09;53.65;100494.84;4922232;28;20040;-64
2023/01/10 03:41:07;;;;;;;8.23;4.75;;;;;;;-9.05;54.43;100499.34;4933085;28;20176;-63
2023/01/10 03:46:38;;;;;;;12.57;6.32;;;;;;;-9.24;54.83;100480.41;4909395;28;20123;-63
2023/01/10 03:49:12;;;;;;;8.65;4.75;;;;;;;-9.29;54.45;100484.28;4925990;28;20250;-63
2023/01/10 03:51:45;;;;;;;14.50;6.30;;;;;;;-9.29;54.71;100484.28;4930466;28;20048;-66
2023/01/10 03:54:17;;;;;;;13.98;6.60;;;;;;;-9.12;54.21;100483.72;4931030;28;20090;-63
2023/01/10 03:56:52;;;;;;;17.77;6.65;;;;;;;-8.94;54.56;100493.31;4929227;28;20108;-66
2023/01/10 03:59:27;;;;;;;10.02;4.95;;;;;;;-9.08;53.64;100473.81;4920037;28;20064;-63
2023/01/10 04:01:58;;;;;;;10.45;5.55;;;;;;;-9.33;54.23;100431.72;4937313;28;20105;-64
2023/01/10 04:04:31;;;;;;;11.40;5.10;;;;;;;-9.27;54.26;100472.59;4929922;28;20076;-65
2023/01/10 04:07:03;;;;;;;16.75;7.60;;;;;;;-9.25;54.32;100470.19;4930793;28;20098;-61
2023/01/10 04:09:35;;;;;;;16.88;7.15;;;;;;;-9.16;54.58;100476.75;4930403;28;20048;-65
2023/01/10 04:12:07;;;;;;;13.25;6.22;;;;;;;-9.93;53.96;100345.97;4931253;28;20090;-64
2023/01/10 04:14:37;;;;;;;17.05;6.00;;;;;;;-9.25;55.44;100471.06;4930357;28;20047;-63
2023/01/10 04:17:09;;;;;;;13.48;5.95;;;;;;;-9.26;55.33;100471.84;4931520;28;20102;-65
2023/01/10 04:19:40;;;;;;;11.15;5.35;;;;;;;-9.70;54.70;100411.59;4925811;28;20052;-65
2023/01/10 04:22:13;;;;;;;12.02;6.65;;;;;;;-9.52;55.33;100464.19;4933436;28;20056;-63
2023/01/10 04:24:45;;;;;;;13.63;6.20;;;;;;;-9.46;55.66;100469.63;4931093;28;20470;-64
2023/01/10 04:27:16;;;;;;;14.32;6.05;;;;;;;-9.62;55.02;100453.44;4937407;28;20294;-68
2023/01/10 04:29:47;;;;;;;14.98;6.32;;;;;;;-9.65;55.04;100468.41;4935682;28;20049;-65
2023/01/10 04:32:19;;;;;;;12.43;7.00;;;;;;;-9.79;55.43;100474.19;4929787;28;20404;-63
2023/01/10 04:34:50;;;;;;;15.60;6.53;;;;;;;-9.81;55.67;100483.31;4937065;28;20053;-63
2023/01/10 04:37:22;;;;;;;6.78;4.22;;;;;;;-9.90;55.02;100475.13;4932976;27;20228;-63
2023/01/10 04:39:53;;;;;;;10.95;5.75;;;;;;;-9.93;55.82;100475.78;4931493;28;20381;-62
2023/01/10 04:42:23;;;;;;;10.90;5.35;;;;;;;-9.90;56.00;100470.06;4931096;28;20195;-62
2023/01/10 04:44:57;;;;;;;11.88;5.65;;;;;;;-9.94;55.97;100478.22;4932464;28;20125;-62
2023/01/10 04:47:29;;;;;;;12.82;6.60;;;;;;;-10.01;55.66;100471.84;4929341;28;20057;-63
2023/01/10 04:49:59;;;;;;;10.43;5.53;;;;;;;-9.91;55.83;100469.16;4936652;28;20060;-63
2023/01/10 04:52:32;;;;;;;15.93;6.20;;;;;;;-9.90;55.67;100475.13;4932027;28;20520;-63
2023/01/10 04:55:03;;;;;;;10.98;5.40;;;;;;;-9.92;55.46;100486.78;4932566;28;20119;-64
2023/01/10 04:57:34;;;;;;;13.32;6.60;;;;;;;-9.99;55.83;100491.38;4931052;28;20048;-61
2023/01/10 05:00:07;;;;;;;13.30;5.75;;;;;;;-9.95;55.94;100481.53;4931569;28;20048;-65
2023/01/10 05:02:42;;;;;;;13.95;6.40;;;;;;;-10.01;56.02;100467.69;4928712;28;20044;-63
2023/01/10 05:05:14;;;;;;;14.82;6.55;;;;;;;-9.94;56.13;100480.72;4920636;28;20137;-63
2023/01/10 05:07:49;;;;;;;13.68;6.00;;;;;;;-9.90;56.02;100500.41;4930564;28;20045;-62
2023/01/10 05:10:20;;;;;;;11.63;5.38;;;;;;;-9.85;56.38;100468.72;4935516;28;20399;-63
2023/01/10 05:12:51;;;;;;;12.85;5.85;;;;;;;-9.71;56.41;100470.50;4929616;28;20992;-64
2023/01/10 05:15:22;;;;;;;15.88;6.25;;;;;;;-9.58;55.94;100475.66;4928881;28;20048;-65
2023/01/10 05:17:59;;;;;;;15.93;6.72;;;;;;;-9.79;56.33;100443.84;4931686;28;20213;-63
2023/01/10 05:20:30;;;;;;;12.32;6.03;;;;;;;-9.58;55.81;100485.75;4925519;28;20041;-65
2023/01/10 05:23:02;;;;;;;12.35;5.88;;;;;;;-9.70;55.57;100489.13;4931866;28;20321;-65
2023/01/10 05:25:33;;;;;;;10.20;5.72;;;;;;;-10.05;56.09;100455.59;4931389;28;20117;-65
2023/01/10 05:28:04;;;;;;;11.25;5.40;;;;;;;-9.88;56.55;100498.84;4931162;28;20051;-66
2023/01/10 05:30:34;;;;;;;13.15;6.25;;;;;;;-10.07;56.97;100487.47;4928209;28;20063;-67
2023/01/10 05:33:06;;;;;;;16.73;6.60;;;;;;;-9.90;57.22;100500.41;4930578;28;20051;-65
2023/01/10 05:35:36;;;;;;;12.23;5.85;;;;;;;-9.91;57.09;100504.56;4927575;28;20097;-67
2023/01/10 05:38:08;;;;;;;10.75;5.68;;;;;;;-9.89;57.42;100507.19;4929053;28;20044;-68
2023/01/10 05:40:39;;;;;;;13.25;5.82;;;;;;;-9.93;57.74;100505.22;4924425;28;20053;-64
2023/01/10 05:43:10;;;;;;;14.43;6.88;;;;;;;-10.10;58.30;100492.31;4930341;28;20050;-66
2023/01/10 05:45:41;;;;;;;13.65;6.15;;;;;;;-10.21;58.21;100488.16;4930951;28;23474;-66
2023/01/10 05:48:11;;;;;;;16.02;6.85;;;;;;;-10.05;58.15;100511.22;4931752;28;20053;-63
2023/01/10 05:50:42;;;;;;;14.10;7.10;;;;;;;-10.13;58.33;100511.44;4931044;28;20035;-64
2023/01/10 05:53:14;;;;;;;15.32;6.80;;;;;;;-10.21;58.51;100513.41;4928988;28;20050;-67
2023/01/10 05:55:45;;;;;;;11.60;6.88;;;;;;;-10.09;58.70;100509.22;4932630;28;20306;-66
2023/01/10 05:58:16;;;;;;;18.98;7.65;;;;;;;-10.08;58.63;100508.47;4930335;28;20044;-65
2023/01/10 06:00:46;;;;;;;14.60;6.53;;;;;;;-10.18;57.76;100508.59;4930316;28;20048;-64
2023/01/10 06:03:17;;;;;;;13.35;6.13;;;;;;;-10.34;57.39;100505.78;4930362;28;20074;-64
2023/01/10 06:05:47;;;;;;;13.02;5.80;;;;;;;-10.29;57.20;100514.56;4930576;28;20371;-64
2023/01/10 06:08:23;;;;;;;11.32;5.28;;;;;;;-10.26;56.96;100519.81;4929722;27;20072;-64
2023/01/10 06:10:54;;;;;;;12.65;5.55;;;;;;;-10.37;56.62;100520.75;4929575;28;20037;-66
2023/01/10 06:13:25;;;;;;;12.88;5.63;;;;;;;-10.47;56.85;100530.19;4929545;28;20044;-66
2023/01/10 06:15:56;;;;;;;14.63;6.15;;;;;;;-10.58;57.47;100525.13;4930141;28;20044;-63
2023/01/10 06:18:26;;;;;;;10.73;5.25;;;;;;;-10.61;58.32;100525.78;4929963;28;20101;-63
2023/01/10 06:20:57;;;;;;;10.65;5.60;;;;;;;-10.58;58.22;100526.03;4930789;28;20044;-67
2023/01/10 06:23:29;;;;;;;18.08;6.03;;;;;;;-10.58;58.74;100526.03;4930158;28;20044;-64
2023/01/10 06:26:00;;;;;;;15.57;6.38;;;;;;;-10.63;58.80;100537.44;4927782;28;20045;-62
2023/01/10 06:28:30;;;;;;;12.25;5.70;;;;;;;-11.22;58.74;100445.66;4934356;28;20064;-63
2023/01/10 06:31:01;;;;;;;16.88;6.35;;;;;;;-10.65;58.74;100544.03;4933876;28;20050;-65
2023/01/10 06:33:31;;;;;;;20.48;7.63;;;;;;;-11.33;59.03;100449.91;4933988;28;20044;-62
2023/01/10 06:36:02;;;;;;;13.13;6.18;;;;;;;-10.75;59.31;100561.81;4934191;28;20054;-64
2023/01/10 06:38:35;;;;;;;20.00;8.05;;;;;;;-10.81;59.32;100556.28;4934387;28;20054;-63
2023/01/10 06:41:13;;;;;;;56.78;18.20;;;;;;;-10.92;59.40;100548.81;4934103;27;20044;-66
2023/01/10 06:43:45;;;;;;;43.17;14.02;;;;;;;-11.10;59.50;100547.47;4925443;28;20191;-62
2023/01/10 06:46:19;;;;;;;38.20;13.55;;;;;;;-11.56;59.51;100506.19;4933936;28;20092;-62
2023/01/10 06:48:51;;;;;;;26.67;9.88;;;;;;;-11.76;59.55;100487.91;4928361;28;20076;-66
2023/01/10 06:51:21;;;;;;;19.67;8.63;;;;;;;-11.44;60.26;100555.03;4934009;28;20074;-62
2023/01/10 06:53:54;;;;;;;17.27;7.43;;;;;;;-11.58;60.28;100558.16;4934435;28;20112;-65
2023/01/10 06:56:24;;;;;;;19.90;8.52;;;;;;;-11.79;60.50;100554.88;4933587;28;20844;-62
2023/01/10 06:58:55;;;;;;;13.27;6.57;;;;;;;-11.93;60.88;100535.31;4933477;28;20055;-66
2023/01/10 07:01:34;;;;;;;13.25;6.28;;;;;;;-11.67;61.34;100585.19;4933627;28;20111;-61
2023/01/10 07:04:05;;;;;;;16.08;6.18;;;;;;;-11.64;61.81;100580.38;4933492;28;20041;-64
2023/01/10 07:06:38;;;;;;;12.85;6.63;;;;;;;-11.65;61.67;100591.25;5031587;22;20061;-66
2023/01/10 07:09:10;;;;;;;14.10;6.75;;;;;;;-11.62;61.84;100594.88;4903670;28;20682;-66
2023/01/10 07:11:41;;;;;;;16.52;7.18;;;;;;;-11.68;61.73;100601.06;4900234;28;20061;-66
2023/01/10 07:14:11;;;;;;;13.10;6.35;;;;;;;-11.80;61.85;100606.94;4901971;28;20125;-67
2023/01/10 07:16:42;;;;;;;11.65;4.85;;;;;;;-11.77;61.89;100614.72;4903173;28;20052;-66
2023/01/10 07:19:14;;;;;;;8.93;5.15;;;;;;;-11.82;61.82;100616.00;4903699;28;20195;-66
2023/01/10 07:21:45;;;;;;;13.70;6.88;;;;;;;-11.90;61.90;100627.19;4903374;28;20053;-66
2023/01/10 07:24:17;;;;;;;12.02;6.60;;;;;;;-11.84;62.46;100632.66;4901879;28;20265;-65
2023/01/10 07:26:48;;;;;;;12.50;6.20;;;;;;;-11.91;62.21;100625.41;4903628;28;20051;-65
2023/01/10 07:29:19;;;;;;;17.95;6.68;;;;;;;-12.05;61.92;100628.50;4902662;28;20057;-65
2023/01/10 07:31:49;;;;;;;11.38;5.75;;;;;;;-12.13;62.25;100632.03;4908037;28;20046;-65
2023/01/10 07:34:20;;;;;;;17.15;6.45;;;;;;;-12.33;61.81;100628.78;4904125;28;20057;-65
2023/01/10 07:36:51;;;;;;;15.02;6.35;;;;;;;-12.50;61.85;100639.13;4902063;28;20435;-65
2023/01/10 07:39:23;;;;;;;14.27;7.07;;;;;;;-12.60;62.05;100638.41;4901876;28;20080;-66
2023/01/10 07:41:55;;;;;;;13.55;6.65;;;;;;;-12.80;62.16;100643.47;4902737;28;20049;-65
2023/01/10 07:44:25;;;;;;;18.70;7.30;;;;;;;-12.96;62.54;100645.47;4901857;28;20070;-66
2023/01/10 07:46:56;;;;;;;20.58;9.15;;;;;;;-13.15;62.92;100654.00;4903489;28;20045;-64
2023/01/10 07:49:27;;;;;;;20.70;9.13;;;;;;;-13.37;63.22;100650.47;4903701;28;20134;-64
2023/01/10 07:51:57;;;;;;;18.25;9.38;;;;;;;-13.63;63.35;100650.75;4899998;28;20490;-64
2023/01/10 07:54:29;;;;;;;17.08;9.73;;;;;;;-13.82;63.88;100658.38;4903762;28;20159;-65
2023/01/10 07:57:01;;;;;;;25.95;11.40;;;;;;;-14.01;64.40;100656.75;4896144;28;20061;-65
2023/01/10 07:59:32;;;;;;;254.40;55.13;;;;;;;-14.15;65.21;100652.16;4902855;28;20048;-64
2023/01/10 08:02:10;;;;;;;509.08;105.95;;;;;;;-14.34;65.65;100650.56;4902001;28;20255;-64
2023/01/10 08:04:42;;;;;;;481.85;96.43;;;;;;;-14.44;66.10;100662.16;4894686;28;20239;-64
2023/01/10 08:07:41;;;;;;;479.65;92.82;;;;;;;-14.67;66.67;100662.69;4902183;28;20052;-66
2023/01/10 08:17:47;;;;;;;225.00;53.20;;;;;;;-15.41;68.39;100671.00;4892074;28;20329;-66
2023/01/10 08:20:19;;;;;;;127.10;36.83;;;;;;;-15.50;68.96;100661.03;4900864;28;20072;-67
2023/01/10 08:22:50;;;;;;;71.30;22.90;;;;;;;-15.74;69.24;100629.63;4895281;28;20084;-65
2023/01/10 08:25:20;;;;;;;84.43;26.10;;;;;;;-15.48;70.00;100668.69;4902262;28;20050;-66
2023/01/10 08:27:54;;;;;;;100.75;30.52;;;;;;;-15.52;69.91;100671.63;4898784;28;20117;-67
2023/01/10 08:30:25;;;;;;;56.63;19.95;;;;;;;-15.69;70.12;100675.97;4900208;28;20053;-63
2023/01/10 08:33:15;;;;;;;31.90;13.20;;;;;;;-15.95;70.61;100667.66;4899775;28;20488;-65
2023/01/10 08:35:49;;;;;;;14.85;8.45;;;;;;;-16.17;71.53;100670.66;4880502;28;20053;-64
2023/01/10 08:38:26;;;;;;;20.05;9.45;;;;;;;-16.22;72.10;100671.81;4905763;28;20046;-65
2023/01/10 08:40:58;;;;;;;18.38;7.22;;;;;;;-16.23;71.63;100682.56;4903193;28;20048;-65
2023/01/10 08:43:54;;;;;;;11.55;7.05;;;;;;;-16.77;71.19;100626.47;4915986;22;20053;-65
2023/01/10 08:46:32;;;;;;;16.38;7.78;;;;;;;-16.57;71.52;100680.91;4905468;23;20114;-65
2023/01/10 08:53:31;;;;;;;16.50;7.43;;;;;;;-16.78;72.93;100685.63;4862227;28;20114;-63
2023/01/10 08:59:17;;;;;;;10.23;6.18;;;;;;;-17.11;73.48;100672.34;4852547;28;20093;-65
2023/01/10 09:02:16;;;;;;;29.23;10.90;;;;;;;-17.27;74.06;100648.34;4855941;28;20118;-64
2023/01/10 09:09:32;;;;;;;8.93;5.47;;;;;;;-17.02;74.65;100691.63;4805099;28;20060;-63
2023/01/10 09:12:53;;;;;;;9.70;5.45;;;;;;;-17.01;74.76;100695.88;4834216;28;20152;-62
2023/01/10 09:15:46;;;;;;;9.82;5.95;;;;;;;-17.07;75.35;100685.28;4865461;28;20058;-62
2023/01/10 09:18:22;;;;;;;12.60;7.32;;;;;;;-17.13;75.81;100694.66;4814486;28;20101;-61
2023/01/10 09:20:54;;;;;;;10.48;5.53;;;;;;;-17.15;76.03;100673.63;4866172;28;20342;-63
2023/01/10 09:23:25;;;;;;;8.48;5.20;;;;;;;-17.07;76.30;100705.28;4866530;28;20120;-64
2023/01/10 09:25:57;;;;;;;13.90;6.05;;;;;;;-17.18;76.53;100688.34;4868741;28;20355;-65
2023/01/10 09:28:28;;;;;;;12.50;5.43;;;;;;;-17.13;76.66;100689.66;4868077;28;20068;-64
2023/01/10 09:31:22;;;;;;;10.45;5.15;;;;;;;-17.02;76.62;100694.13;4875941;28;20226;-61
2023/01/10 09:33:54;;;;;;;8.50;5.25;;;;;;;-16.90;76.79;100698.56;4892379;22;20057;-61
2023/01/10 09:36:25;;;;;;;11.98;6.32;;;;;;;-16.90;77.16;100689.44;4879419;28;20468;-62
2023/01/10 09:38:56;;;;;;;37.58;8.75;;;;;;;-16.87;77.50;100698.84;4883867;28;20060;-65
2023/01/10 09:42:03;;;;;;;49.97;14.20;;;;;;;-16.81;77.36;100700.34;4915628;22;20107;-63
2023/01/10 09:44:48;;;;;;;19.80;8.32;;;;;;;-16.73;77.44;100703.56;4889685;22;20087;-66
2023/01/10 09:50:20;;;;;;;8.20;5.63;;;;;;;-17.12;77.28;100671.47;4886108;23;20515;-62
2023/01/10 09:53:07;;;;;;;7.47;4.70;;;;;;;-17.16;77.64;100634.41;4811493;28;20054;-60
2023/01/10 09:55:58;;;;;;;9.30;5.68;;;;;;;-16.75;77.74;100707.53;4807630;28;20058;-63
2023/01/10 09:58:53;;;;;;;9.13;5.95;;;;;;;-16.65;77.95;100707.69;4808015;28;20606;-65
2023/01/10 10:01:28;;;;;;;7.32;5.28;;;;;;;-16.62;77.82;100708.00;4823993;28;20440;-64
2023/01/10 10:04:15;;;;;;;10.00;5.85;;;;;;;-16.62;77.48;100708.00;4815717;28;20500;-64
2023/01/10 10:07:16;;;;;;;13.60;6.78;;;;;;;-16.61;77.10;100699.75;4825852;28;20066;-63
2023/01/10 10:14:24;;;;;;;7.70;5.20;;;;;;;-16.80;76.75;100691.22;4836207;28;20078;-63
2023/01/10 10:17:43;;;;;;;24.15;8.50;;;;;;;-16.59;76.74;100717.44;4812172;28;20059;-66
2023/01/10 10:20:29;;;;;;;40.40;11.52;;;;;;;-16.41;76.59;100713.31;4817055;28;20054;-66
2023/01/10 10:23:29;;;;;;;22.13;8.77;;;;;;;-15.90;77.04;100704.03;4817084;28;20090;-66
2023/01/10 10:26:08;;;;;;;52.40;17.83;;;;;;;-15.83;76.35;100703.88;4805796;28;20149;-63
2023/01/10 10:29:21;;;;;;;49.22;17.08;;;;;;;-15.79;75.13;100707.56;4824932;28;20152;-64
2023/01/10 10:32:20;;;;;;;32.33;14.82;;;;;;;-16.12;73.76;100703.63;4779136;28;20058;-66
2023/01/10 10:35:14;;;;;;;14.77;8.60;;;;;;;-16.27;73.71;100708.03;4795037;28;20051;-64
2023/01/10 10:37:50;;;;;;;13.90;6.13;;;;;;;-16.13;73.63;100707.72;4814192;28;20042;-64
2023/01/10 10:40:29;;;;;;;10.77;6.53;;;;;;;-16.58;73.07;100635.03;4818448;28;20150;-66
2023/01/10 10:43:06;;;;;;;14.32;7.07;;;;;;;-16.17;72.53;100709.78;4808321;28;20469;-64
2023/01/10 10:45:39;;;;;;;17.70;7.63;;;;;;;-16.05;72.43;100720.09;4827389;28;20492;-66
2023/01/10 10:48:16;;;;;;;21.42;7.30;;;;;;;-16.33;71.95;100707.44;4818913;28;20657;-66
2023/01/10 10:51:46;;;;;;;272.48;59.05;;;;;;;-16.71;70.92;100717.09;4826290;28;20108;-63
2023/01/10 10:54:20;;;;;;;202.55;45.92;;;;;;;-17.03;71.39;100717.34;4812992;28;20154;-64
2023/01/10 10:57:01;;;;;;;58.45;19.55;;;;;;;-17.29;72.29;100701.38;4791611;28;20066;-63
2023/01/10 11:00:06;;;;;;;28.60;11.63;;;;;;;-17.20;73.30;100722.25;4818265;28;20105;-62
2023/01/10 11:02:57;;;;;;;10.18;6.55;;;;;;;-17.20;73.91;100717.28;4780782;28;20660;-65
2023/01/10 11:05:36;;;;;;;11.13;5.72;;;;;;;-17.44;74.23;100671.63;4790673;28;20052;-62
2023/01/10 11:08:11;;;;;;;21.15;7.38;;;;;;;-17.00;74.75;100722.63;4799982;28;20070;-62
2023/01/10 11:10:50;;;;;;;26.27;10.15;;;;;;;-17.10;74.40;100709.97;4789730;28;20685;-62
2023/01/10 11:14:05;;;;;;;29.48;11.10;;;;;;;-17.08;73.65;100725.13;4735070;28;20055;-61
2023/01/10 11:16:50;;;;;;;22.48;9.20;;;;;;;-17.17;73.47;100727.56;4779475;28;20110;-62
2023/01/10 11:24:22;;;;;;;19.38;9.00;;;;;;;-17.06;73.20;100722.03;4635396;29;20119;-64
2023/01/10 11:26:59;;;;;;;24.23;8.50;;;;;;;-17.35;73.00;100721.63;4666470;29;21388;-63
2023/01/10 11:33:03;;;;;;;39.67;12.48;;;;;;;-17.83;72.53;100679.41;4829224;27;3402095;-65
2023/01/10 11:35:35;;;;;;;38.40;12.32;;;;;;;-17.51;73.29;100714.19;4945231;27;20051;-65
2023/01/10 11:38:29;;;;;;;39.45;13.57;;;;;;;-17.44;73.65;100700.72;4954786;27;20685;-64
2023/01/10 11:41:01;;;;;;;47.85;16.98;;;;;;;-17.18;73.98;100720.81;4938110;27;20492;-63
2023/01/10 11:43:35;;;;;;;33.50;15.85;;;;;;;-17.20;74.16;100717.28;4955392;27;20063;-64
2023/01/10 11:46:13;;;;;;;19.52;9.57;;;;;;;-17.17;74.61;100700.09;4956143;27;20051;-63
2023/01/10 11:48:50;;;;;;;33.72;11.95;;;;;;;-16.99;74.45;100709.41;4945869;28;20085;-63
2023/01/10 11:51:40;;;;;;;32.20;12.43;;;;;;;-16.89;73.91;100725.34;4946171;27;20724;-63
2023/01/10 11:54:14;;;;;;;75.03;20.27;;;;;;;-16.98;73.63;100686.19;4946339;27;20453;-63
2023/01/10 11:56:58;;;;;;;120.40;28.58;;;;;;;-16.75;73.00;100705.03;4956013;27;20213;-64
2023/01/10 11:59:29;;;;;;;151.75;34.80;;;;;;;-16.81;71.99;100724.47;4943976;27;20047;-63
2023/01/10 12:02:11;;;;;;;93.45;25.45;;;;;;;-17.02;71.08;100734.13;4945580;27;20075;-63
2023/01/10 12:04:47;;;;;;;74.53;22.80;;;;;;;-17.36;70.13;100694.00;4945276;27;20094;-64
2023/01/10 12:07:19;;;;;;;181.73;38.60;;;;;;;-17.42;69.20;100725.13;4955772;27;20137;-63
2023/01/10 12:09:57;;;;;;;86.75;25.30;;;;;;;-17.81;68.79;100711.13;4962071;27;20049;-62
2023/01/10 12:16:37;;;;;;;57.55;18.23;;;;;;;-18.10;69.20;100726.47;4904861;28;20055;-63
2023/01/10 12:22:52;;;;;;;55.70;17.73;;;;;;;-17.64;70.94;100741.16;5023312;23;20050;-59
2023/01/10 12:25:33;;;;;;;37.57;13.93;;;;;;;-17.81;70.86;100691.16;4813489;28;20485;-60
2023/01/10 12:28:05;;;;;;;54.38;16.30;;;;;;;-17.88;70.23;100735.44;4813174;28;20294;-60
2023/01/10 12:30:42;;;;;;;46.15;14.77;;;;;;;-18.02;70.46;100719.78;4822636;28;20336;-62
2023/01/10 12:33:18;;;;;;;36.47;12.43;;;;;;;-17.75;70.72;100734.19;4814794;28;20461;-62
2023/01/10 12:35:56;;;;;;;60.63;15.50;;;;;;;-17.98;70.55;100737.72;4822270;28;20050;-61
2023/01/10 12:44:17;;;;;;;69.18;20.88;;;;;;;-18.42;70.31;100721.50;4776607;28;20540;-61
2023/01/10 12:46:52;;;;;;;71.53;18.80;;;;;;;-18.27;71.07;100733.13;4808873;28;20048;-62
2023/01/10 12:49:49;;;;;;;59.15;16.33;;;;;;;-18.43;70.52;100714.78;4801013;28;20452;-61
2023/01/10 12:52:30;;;;;;;58.35;16.70;;;;;;;-18.33;70.91;100722.47;4801379;28;20044;-61
2023/01/10 12:55:04;;;;;;;61.90;18.63;;;;;;;-18.03;71.45;100730.50;4800412;28;20074;-61